Latest Weather Observations for Cocos Island

IDW60801

Issued at 8:43 am WST Tuesday 22 September 2020 (issued every 10 minutes, with the page automatically refreshed every 10 minutes)

About weather observations | Map of weather stations | Latest weather observations for WA | Other Formats
Station Details ID: 200284 Name: COCOS ISLAND AIRPORT Lat: -12.19 Lon: 96.83 Height: 3.0 m
Data from the previous 72 hours. | See also: Recent months at Cocos Island
Date/Time
WST
Temp
°C
App
Temp
°C
Dew
Point
°C
Rel
Hum
%
Delta-T
°C
Wind Press
QNH
hPa
Press
MSL
hPa
Rain since
9am
mm
Dir  Spd
km/h
Gust
km/h
Spd
kts
Gust
kts
22/08:30am 26.2 25.9 24.2 89 1.4 E 33 41 18 22 1012.9 1012.9 -
22/08:00am 26.0 25.8 24.4 91 1.1 E 33 41 18 22 1012.7 1012.7 -
22/07:30am 26.1 24.8 24.5 91 1.1 ENE 39 46 21 25 1012.5 1012.5 -
22/07:00am 26.0 25.6 24.6 92 1.0 E 35 43 19 23 1012.3 1012.3 -
22/06:30am 25.8 26.1 24.2 91 1.1 E 30 39 16 21 1012.1 1012.1 -
22/06:00am 25.8 25.5 24.2 91 1.1 E 33 39 18 21 1012.0 1012.0 -
22/05:30am 25.9 24.9 24.3 91 1.1 E 37 46 20 25 1012.0 1012.0 -
22/05:16am 25.8 25.2 24.4 92 1.0 E 35 44 19 24 1011.9 1011.9 -
22/05:00am 25.8 25.6 24.4 92 1.0 E 33 43 18 23 1012.0 1012.0 -
22/04:57am 25.9 25.8 24.3 91 1.1 E 32 43 17 23 1012.0 1012.0 -
22/04:30am 26.3 27.3 24.2 88 1.4 E 26 37 14 20 1012.1 1012.1 -
22/04:00am 26.5 27.5 24.2 87 1.6 E 26 43 14 23 1012.1 1012.1 -
22/03:30am 26.3 27.4 24.3 89 1.4 E 26 43 14 23 1012.2 1012.2 -
22/02:30am 26.7 28.5 24.2 86 1.7 ESE 22 39 12 21 1012.8 1012.8 -
22/02:00am 26.8 27.0 24.1 85 1.9 E 30 41 16 22 1013.0 1013.0 -
22/01:30am 26.4 28.2 24.2 88 1.5 ESE 22 37 12 20 1013.1 1013.1 -
22/01:00am 26.6 - 24.8 90 1.3 - - - - - 1013.4 1013.4 -
22/12:30am 26.5 28.1 24.5 89 1.4 ESE 24 35 13 19 1013.7 1013.7 -
22/12:00am 26.5 28.2 24.7 90 1.2 ESE 24 39 13 21 1013.8 1013.8 -
 
Date/Time
WST
Temp
°C
App
Temp
°C
Dew
Point
°C
Rel
Hum
%
Delta-T
°C
Wind Press
QNH
hPa
Press
MSL
hPa
Rain since
9am
mm
Dir  Spd
km/h
Gust
km/h
Spd
kts
Gust
kts
21/11:30pm 26.7 28.2 24.4 87 1.6 ESE 24 35 13 19 1013.9 1013.9 -
21/11:00pm 26.6 26.4 24.1 86 1.7 E 32 43 17 23 1013.8 1013.8 -
21/10:30pm 27.0 26.9 24.3 85 1.9 E 32 41 17 22 1013.6 1013.6 -
21/10:00pm 27.0 26.4 23.7 82 2.3 E 33 41 18 22 1013.6 1013.6 -
21/09:30pm 27.0 28.1 24.3 85 1.9 ESE 26 41 14 22 1013.3 1013.3 -
21/09:00pm 27.1 26.7 24.0 83 2.1 E 33 41 18 22 1013.0 1013.0 -
21/08:30pm 27.2 - 23.9 82 2.3 - - - - - 1012.8 1012.8 -
21/08:00pm 27.2 - 24.3 84 2.0 - - - - - 1012.6 1012.6 -
21/07:30pm 27.3 27.1 24.4 84 2.0 E 33 43 18 23 1012.2 1012.2 -
21/07:00pm 27.3 27.4 24.0 82 2.3 E 30 41 16 22 1011.8 1011.8 -
21/06:30pm 27.5 27.2 23.9 81 2.5 E 32 44 17 24 1011.5 1011.5 -
21/05:30pm 27.9 27.7 24.1 80 2.6 E 32 46 17 25 1011.2 1011.2 -
21/05:00pm 27.9 27.5 24.1 80 2.6 E 33 44 18 24 1011.1 1011.1 -
21/04:30pm 28.3 27.4 24.5 80 2.6 E 37 50 20 27 1011.1 1011.1 -
21/04:00pm 28.3 25.7 23.9 77 3.0 E 44 54 24 29 1011.1 1011.1 -
21/03:30pm 28.7 26.8 24.7 79 2.8 E 43 50 23 27 1011.2 1011.2 -
21/03:00pm 28.8 26.5 24.4 77 3.1 E 44 52 24 28 1011.3 1011.3 -
21/02:30pm 28.7 27.4 24.5 78 2.9 E 39 48 21 26 1011.5 1011.5 -
21/02:00pm 28.3 27.9 24.7 81 2.5 E 35 48 19 26 1011.8 1011.8 -
21/01:30pm 26.9 26.6 23.8 83 2.1 E 32 46 17 25 1012.2 1012.2 -
21/01:00pm 27.6 26.5 24.2 82 2.4 E 37 48 20 26 1012.3 1012.3 -
21/12:30pm 27.1 27.1 23.8 82 2.3 E 30 39 16 21 1012.6 1012.6 -
21/12:00pm 27.6 28.4 23.8 80 2.6 ESE 26 44 14 24 1012.8 1012.8 0.0
21/11:30am 27.4 26.6 23.4 79 2.7 E 33 43 18 23 1013.0 1013.0 0.0
21/11:00am 27.3 27.2 23.5 80 2.6 E 30 41 16 22 1013.1 1013.1 0.0
21/10:30am 27.2 25.3 23.4 80 2.6 E 39 48 21 26 1013.2 1013.2 -
21/10:00am 27.4 26.4 23.6 80 2.6 E 35 44 19 24 1013.0 1013.0 -
21/09:30am 27.2 26.1 23.4 80 2.6 E 35 44 19 24 1012.7 1012.7 -
21/09:00am 26.7 25.7 23.6 83 2.1 E 35 44 19 24 1012.4 1012.4 -
21/08:32am 26.7 26.8 23.2 81 2.4 E 28 46 15 25 1012.3 1012.3 -
21/08:30am 26.6 25.8 23.1 81 2.4 E 32 46 17 25 1012.3 1012.3 -
21/08:00am 26.5 26.2 23.2 82 2.2 E 30 41 16 22 1012.1 1012.1 -
21/07:30am 26.4 25.1 23.1 82 2.2 E 35 46 19 25 1011.9 1011.9 -
21/07:17am 26.4 26.1 23.3 83 2.1 E 30 48 16 26 1011.7 1011.7 -
21/07:00am 26.3 27.2 23.4 84 2.0 E 24 39 13 21 1011.5 1011.5 -
21/06:30am 26.4 26.8 23.1 82 2.2 ESE 26 43 14 23 1011.5 1011.5 -
21/06:00am 26.4 27.4 23.5 84 2.0 ESE 24 37 13 20 1011.2 1011.2 -
21/05:30am 26.4 27.7 23.3 83 2.1 ESE 22 37 12 20 1011.1 1011.1 -
21/05:00am 26.3 27.5 23.2 83 2.1 ESE 22 39 12 21 1011.1 1011.1 -
21/04:30am 26.3 27.2 22.6 80 2.5 ESE 22 33 12 18 1011.3 1011.3 -
21/04:00am 26.4 27.2 23.1 82 2.2 ESE 24 37 13 20 1011.4 1011.4 -
21/03:30am 26.4 27.5 23.7 85 1.9 ESE 24 35 13 19 1011.6 1011.6 -
21/03:00am 26.4 27.7 23.3 83 2.1 ESE 22 39 12 21 1011.7 1011.7 -
21/02:30am 26.5 27.7 23.2 82 2.2 ESE 22 32 12 17 1012.2 1012.2 -
21/02:00am 26.5 27.3 23.2 82 2.2 ESE 24 43 13 23 1012.6 1012.6 -
21/01:30am 26.5 27.1 22.8 80 2.5 ESE 24 39 13 21 1012.9 1012.9 -
21/01:00am 26.7 27.4 23.0 80 2.5 ESE 24 35 13 19 1013.1 1013.1 -
21/12:30am 26.7 27.4 23.0 80 2.5 ESE 24 39 13 21 1013.4 1013.4 -
21/12:00am 26.7 27.9 23.2 81 2.4 ESE 22 32 12 17 1013.9 1013.9 -
 
Date/Time
WST
Temp
°C
App
Temp
°C
Dew
Point
°C
Rel
Hum
%
Delta-T
°C
Wind Press
QNH
hPa
Press
MSL
hPa
Rain since
9am
mm
Dir  Spd
km/h
Gust
km/h
Spd
kts
Gust
kts
20/11:30pm 26.7 27.6 23.4 82 2.3 ESE 24 37 13 20 1014.0 1014.0 -
20/11:00pm 26.8 28.2 23.5 82 2.3 ESE 22 37 12 20 1014.1 1014.1 -
20/10:30pm 26.6 27.6 23.5 83 2.1 ESE 24 37 13 20 1014.1 1014.1 -
20/10:00pm 26.5 28.0 23.0 81 2.4 ESE 20 35 11 19 1014.0 1014.0 -
20/09:30pm 26.1 26.8 23.6 86 1.7 ESE 26 43 14 23 1013.8 1013.8 -
20/09:15pm 25.4 26.7 24.0 92 1.0 ESE 24 37 13 20 1013.6 1013.6 -
20/09:00pm 25.0 24.2 23.4 91 1.1 E 33 48 18 26 1013.7 1013.7 -
20/08:41pm 25.9 26.0 23.9 89 1.4 E 30 52 16 28 1013.5 1013.5 -
20/08:30pm 27.0 27.6 22.8 78 2.8 ESE 24 35 13 19 1013.4 1013.4 -
20/08:00pm 27.0 28.1 23.0 79 2.7 ESE 22 37 12 20 1013.2 1013.2 -
20/07:30pm 27.0 28.6 23.3 80 2.5 ESE 20 37 11 20 1012.9 1012.9 -
20/07:00pm 27.1 28.6 23.1 79 2.7 ESE 20 37 11 20 1012.7 1012.7 -
20/06:30pm 27.2 28.3 23.0 78 2.9 ESE 22 43 12 23 1012.3 1012.3 -
20/06:00pm 27.3 28.4 23.1 78 2.9 ESE 22 35 12 19 1011.9 1011.9 -
20/05:30pm 27.5 27.8 22.9 76 3.1 ESE 26 39 14 21 1011.5 1011.5 -
20/05:00pm 27.8 28.6 23.2 76 3.1 ESE 24 33 13 18 1011.5 1011.5 -
20/04:30pm 27.7 28.5 23.1 76 3.1 ESE 24 39 13 21 1011.6 1011.6 -
20/04:00pm 27.6 28.4 23.2 77 3.0 ESE 24 39 13 21 1011.6 1011.6 -
20/03:30pm 28.4 29.1 22.9 72 3.7 ESE 24 48 13 26 1011.8 1011.8 -
20/03:15pm 28.5 28.3 22.7 71 3.9 ESE 28 46 15 25 1011.8 1011.8 -
20/03:00pm 28.2 28.7 23.3 75 3.4 ESE 26 41 14 22 1011.9 1011.9 -
20/02:00pm 27.6 27.8 22.8 75 3.3 ESE 26 41 14 22 1012.2 1012.2 0.0
20/01:30pm 27.6 28.7 23.0 76 3.1 ESE 22 35 12 19 1012.5 1012.5 0.0
20/01:00pm 27.9 28.0 22.6 73 3.6 ESE 26 39 14 21 1012.6 1012.6 0.0
20/12:30pm 27.8 28.3 22.7 74 3.5 ESE 24 37 13 20 1012.7 1012.7 0.0
20/12:00pm 28.0 28.5 22.7 73 3.6 ESE 24 39 13 21 1012.9 1012.9 0.0
20/11:33am 27.5 27.4 22.9 76 3.1 ESE 28 46 15 25 1013.1 1013.1 0.0
20/11:30am 27.5 27.8 22.9 76 3.1 ESE 26 44 14 24 1013.1 1013.1 0.0
20/11:00am 27.2 27.5 22.2 74 3.4 ESE 24 43 13 23 1013.2 1013.2 -
20/10:30am 27.0 27.4 22.4 76 3.1 ESE 24 39 13 21 1013.1 1013.1 -
20/10:00am 26.9 27.1 22.1 75 3.2 ESE 24 43 13 23 1013.1 1013.1 -
20/09:30am 26.9 27.8 22.7 78 2.8 ESE 22 35 12 19 1013.0 1013.0 -
20/09:00am 26.7 26.9 22.1 76 3.1 ESE 24 37 13 20 1012.6 1012.6 -
20/08:30am 26.6 26.8 22.0 76 3.1 ESE 24 35 13 19 1012.4 1012.4 -
20/08:00am 26.4 25.6 21.6 75 3.2 ESE 28 41 15 22 1012.1 1012.1 -
20/07:30am 26.2 26.2 21.6 76 3.1 ESE 24 43 13 23 1012.1 1012.1 -
20/07:00am 26.2 25.7 21.4 75 3.2 ESE 26 39 14 21 1012.0 1012.0 -
20/06:30am 26.2 26.8 21.4 75 3.2 ESE 20 33 11 18 1011.9 1011.9 -
20/06:00am 26.1 26.5 20.9 73 3.4 ESE 20 32 11 17 1011.7 1011.7 -
20/05:30am 26.0 26.1 21.2 75 3.2 ESE 22 35 12 19 1011.7 1011.7 -
20/05:00am 26.1 26.4 20.7 72 3.5 ESE 20 35 11 19 1011.7 1011.7 0.0
20/04:30am 26.1 26.4 20.7 72 3.5 ESE 20 32 11 17 1011.8 1011.8 -
20/04:00am 26.1 25.5 20.4 71 3.7 ESE 24 39 13 21 1011.9 1011.9 -
20/03:30am 26.1 26.7 21.3 75 3.2 ESE 20 30 11 16 1011.8 1011.8 -
20/03:00am 26.1 26.7 21.3 75 3.2 ESE 20 33 11 18 1012.0 1012.0 -
20/02:30am 26.1 26.6 21.1 74 3.3 ESE 20 32 11 17 1012.1 1012.1 -
20/02:00am 26.2 27.0 21.8 77 2.9 ESE 20 33 11 18 1012.3 1012.3 -
20/01:30am 26.4 27.0 21.4 74 3.3 ESE 20 37 11 20 1012.7 1012.7 -
20/01:00am 26.5 26.7 21.3 73 3.4 ESE 22 37 12 20 1012.9 1012.9 -
20/12:30am 26.4 26.5 21.2 73 3.4 ESE 22 33 12 18 1013.0 1013.0 -
20/12:00am 26.5 27.1 22.1 77 3.0 ESE 22 39 12 21 1013.0 1013.0 -
 
Date/Time
WST
Temp
°C
App
Temp
°C
Dew
Point
°C
Rel
Hum
%
Delta-T
°C
Wind Press
QNH
hPa
Press
MSL
hPa
Rain since
9am
mm
Dir  Spd
km/h
Gust
km/h
Spd
kts
Gust
kts
19/11:30pm 26.5 26.7 21.3 73 3.4 ESE 22 33 12 18 1012.8 1012.8 -
19/11:00pm 26.5 27.2 21.5 74 3.3 ESE 20 33 11 18 1012.7 1012.7 -
19/10:30pm 26.6 26.7 21.1 72 3.6 ESE 22 37 12 20 1012.6 1012.6 -
19/10:00pm 26.6 25.5 21.1 72 3.6 ESE 28 39 15 21 1012.5 1012.5 -
19/09:00pm 26.7 25.3 21.2 72 3.6 ESE 30 39 16 21 1011.9 1011.9 -
19/08:30pm 26.7 26.0 21.0 71 3.8 ESE 26 41 14 22 1011.6 1011.6 -
19/08:00pm 26.8 26.9 21.8 74 3.3 ESE 24 37 13 20 1011.2 1011.2 -
19/07:30pm 26.8 25.9 20.6 69 4.1 ESE 26 37 14 20 1011.0 1011.0 -
19/07:00pm 27.0 27.3 21.5 72 3.7 ESE 22 35 12 19 1010.8 1010.8 -
19/06:30pm 27.1 27.3 21.4 71 3.8 ESE 22 33 12 18 1010.6 1010.6 -
19/06:00pm 27.5 27.2 21.8 71 3.8 ESE 26 39 14 21 1010.6 1010.6 -
19/05:30pm 27.9 26.9 21.2 67 4.5 ESE 28 39 15 21 1010.5 1010.5 -
19/05:00pm 28.0 28.2 21.3 67 4.5 ESE 22 33 12 18 1010.5 1010.5 0.2
19/04:30pm 28.1 28.4 21.6 68 4.3 ESE 22 32 12 17 1010.6 1010.6 0.2
19/04:00pm 28.0 27.9 21.5 67 4.3 ESE 24 35 13 19 1010.7 1010.7 0.2
19/03:30pm 28.5 28.4 21.5 66 4.7 ESE 24 39 13 21 1011.0 1011.0 0.2
19/03:00pm 28.2 28.4 22.0 69 4.2 ESE 24 35 13 19 1011.2 1011.2 0.2
19/02:30pm 28.2 28.9 21.5 67 4.5 ESE 20 37 11 20 1011.5 1011.5 0.2
19/02:00pm 28.1 28.3 21.4 67 4.5 ESE 22 37 12 20 1011.9 1011.9 0.2
19/01:30pm 28.6 28.5 21.4 65 4.8 ESE 24 43 13 23 1012.2 1012.2 0.2
19/01:00pm 28.0 27.9 21.5 67 4.3 ESE 24 39 13 21 1012.6 1012.6 0.2
19/12:30pm 27.8 28.0 21.3 67 4.3 ESE 22 33 12 18 1013.2 1013.2 0.2
19/12:00pm 28.1 28.4 21.6 68 4.3 ESE 22 33 12 18 1013.4 1013.4 0.2
19/11:30am 27.1 27.2 21.2 70 3.9 ESE 22 33 12 18 1013.6 1013.6 0.2
19/11:00am 27.7 27.1 21.3 68 4.3 ESE 26 41 14 22 1013.8 1013.8 -
19/10:30am 27.0 27.3 21.5 72 3.7 ESE 22 35 12 19 1013.7 1013.7 -

Other formats

Comma delimited format used in spreadsheet applications
http://www.bom.gov.au/fwo/IDW60801/IDW60801.96996.axf

JavaScript Object Notation format (JSON) in row-major order
http://www.bom.gov.au/fwo/IDW60801/IDW60801.96996.json

Data quality

Most of these data are generated automatically and are frequently updated. Quality checks on data are not normally performed. It is possible for incorrect values to appear. Refer to information at About Latest Weather Observations and please check the disclaimer before using these data.